EZY61GF EGCC-LFMT
Flight info
| Callsign | EZY61GF |
|---|---|
| Flight time | N/A |
| Altitude | 35000 |
| Route | LISTO P18 TELBA L151 MID/N0440F370 UL612 VEULE DCT DEKOD UN857 DISAK/N0424F330 DCT DIRMO DCT ETAMO DCT ADEKA DCT MOKDI DCT MEN |
| Aircraft | A319/M-SDE2E3FGIJ1RWXYZ/LB1 |
Departure
| Time | 2026-05-06 19:03 |
|---|---|
| Airport | Manchester Airport (EGCC) |
Arrival
| Time | N/A |
|---|---|
| Airport | Montpellier-Méditerranée Airport (LFMT) |
| Time | Latitude | Longitude | Altitude | Speed | Heading |
|---|---|---|---|---|---|
| 2026-05-06 18:35 | 53.36125 | -2.27538 | 248 ft | 0 kts | 46° |
| 2026-05-06 18:51 | 53.36114 | -2.27557 | 247 ft | 3 kts | 46° |
| 2026-05-06 18:52 | 53.36101 | -2.27580 | 247 ft | 3 kts | 46° |
| 2026-05-06 18:52 | 53.36090 | -2.27597 | 247 ft | 2 kts | 46° |
| 2026-05-06 18:52 | 53.36085 | -2.27607 | 247 ft | 3 kts | 82° |
| 2026-05-06 18:52 | 53.36084 | -2.27613 | 247 ft | 3 kts | 99° |
| 2026-05-06 18:53 | 53.36089 | -2.27633 | 247 ft | 3 kts | 162° |
| 2026-05-06 18:53 | 53.36092 | -2.27635 | 247 ft | 0 kts | 162° |
| 2026-05-06 18:57 | 53.36087 | -2.27632 | 247 ft | 2 kts | 162° |
| 2026-05-06 18:58 | 53.36062 | -2.27622 | 247 ft | 5 kts | 172° |
| 2026-05-06 18:58 | 53.36010 | -2.27625 | 247 ft | 9 kts | 185° |
| 2026-05-06 18:58 | 53.35942 | -2.27636 | 247 ft | 10 kts | 185° |
| 2026-05-06 18:58 | 53.35871 | -2.27648 | 247 ft | 10 kts | 186° |
| 2026-05-06 18:59 | 53.35797 | -2.27660 | 247 ft | 11 kts | 185° |
| 2026-05-06 18:59 | 53.35725 | -2.27697 | 247 ft | 11 kts | 222° |
| 2026-05-06 18:59 | 53.35670 | -2.27807 | 247 ft | 14 kts | 231° |
| 2026-05-06 18:59 | 53.35608 | -2.27936 | 247 ft | 14 kts | 231° |
| 2026-05-06 19:00 | 53.35527 | -2.28087 | 240 ft | 19 kts | 220° |
| 2026-05-06 19:00 | 53.35397 | -2.28164 | 238 ft | 20 kts | 187° |
| 2026-05-06 19:00 | 53.35263 | -2.28253 | 234 ft | 22 kts | 217° |
| 2026-05-06 19:00 | 53.35191 | -2.28385 | 232 ft | 23 kts | 231° |
| 2026-05-06 19:01 | 53.35054 | -2.28667 | 234 ft | 23 kts | 230° |
| 2026-05-06 19:01 | 53.34940 | -2.28872 | 228 ft | 25 kts | 226° |
| 2026-05-06 19:01 | 53.34816 | -2.29094 | 217 ft | 23 kts | 229° |
| 2026-05-06 19:01 | 53.34716 | -2.29292 | 212 ft | 15 kts | 222° |
| 2026-05-06 19:02 | 53.34626 | -2.29341 | 214 ft | 13 kts | 180° |
| 2026-05-06 19:02 | 53.34550 | -2.29283 | 214 ft | 12 kts | 126° |
| 2026-05-06 19:02 | 53.34544 | -2.29211 | 210 ft | 5 kts | 70° |
| 2026-05-06 19:02 | 53.34570 | -2.29157 | 209 ft | 8 kts | 51° |
| 2026-05-06 19:03 | 53.34723 | -2.28841 | 222 ft | 71 kts | 51° |
| 2026-05-06 19:03 | 53.35181 | -2.27896 | 246 ft | 135 kts | 51° |
| 2026-05-06 19:03 | 53.35858 | -2.26493 | 534 ft | 161 kts | 52° |
| 2026-05-06 19:03 | 53.36565 | -2.25043 | 1236 ft | 160 kts | 54° |
| 2026-05-06 19:04 | 53.37275 | -2.23537 | 1810 ft | 174 kts | 59° |
| 2026-05-06 19:04 | 53.37594 | -2.21503 | 2139 ft | 195 kts | 95° |
| 2026-05-06 19:04 | 53.37026 | -2.19354 | 2489 ft | 219 kts | 134° |
| 2026-05-06 19:04 | 53.35715 | -2.17782 | 2986 ft | 243 kts | 147° |
| 2026-05-06 19:05 | 53.34097 | -2.16813 | 3828 ft | 255 kts | 175° |
| 2026-05-06 19:05 | 53.32309 | -2.17001 | 4784 ft | 261 kts | 186° |
| 2026-05-06 19:05 | 53.30481 | -2.17312 | 5729 ft | 266 kts | 187° |
| 2026-05-06 19:05 | 53.28613 | -2.17625 | 6648 ft | 272 kts | 188° |
| 2026-05-06 19:06 | 53.26708 | -2.17943 | 7528 ft | 277 kts | 188° |
| 2026-05-06 19:06 | 53.24773 | -2.18265 | 8415 ft | 282 kts | 188° |
| 2026-05-06 19:06 | 53.22802 | -2.18583 | 9294 ft | 287 kts | 187° |
| 2026-05-06 19:06 | 53.20797 | -2.18898 | 10143 ft | 292 kts | 187° |
| 2026-05-06 19:07 | 53.18690 | -2.19229 | 10490 ft | 316 kts | 187° |
| 2026-05-06 19:07 | 53.17212 | -2.19462 | 10788 ft | 326 kts | 187° |
| 2026-05-06 19:07 | 53.14145 | -2.19947 | 11773 ft | 334 kts | 187° |
| 2026-05-06 19:07 | 53.11841 | -2.20303 | 12565 ft | 339 kts | 187° |
| 2026-05-06 19:08 | 53.09452 | -2.20673 | 13377 ft | 342 kts | 187° |
| 2026-05-06 19:08 | 53.07067 | -2.21043 | 14116 ft | 346 kts | 187° |
| 2026-05-06 19:08 | 53.04656 | -2.21420 | 14808 ft | 350 kts | 187° |
| 2026-05-06 19:08 | 53.02223 | -2.21800 | 15515 ft | 353 kts | 187° |
| 2026-05-06 19:09 | 52.99769 | -2.22184 | 16221 ft | 356 kts | 187° |
| 2026-05-06 19:09 | 52.97295 | -2.22567 | 16910 ft | 359 kts | 187° |
| 2026-05-06 19:09 | 52.94796 | -2.22953 | 17586 ft | 362 kts | 187° |
| 2026-05-06 19:09 | 52.92272 | -2.23338 | 18275 ft | 366 kts | 187° |
| 2026-05-06 19:10 | 52.89730 | -2.23725 | 18873 ft | 369 kts | 187° |
| 2026-05-06 19:10 | 52.87166 | -2.24120 | 19466 ft | 372 kts | 187° |
| 2026-05-06 19:10 | 52.84618 | -2.24858 | 20060 ft | 373 kts | 195° |
| 2026-05-06 19:10 | 52.82113 | -2.25837 | 20635 ft | 376 kts | 195° |
| 2026-05-06 19:11 | 52.79556 | -2.26831 | 21223 ft | 379 kts | 195° |
| 2026-05-06 19:11 | 52.76971 | -2.27829 | 21802 ft | 383 kts | 195° |
| 2026-05-06 19:11 | 52.74369 | -2.28827 | 22380 ft | 386 kts | 195° |
| 2026-05-06 19:11 | 52.71737 | -2.29812 | 22934 ft | 390 kts | 193° |
| 2026-05-06 19:12 | 52.69021 | -2.30220 | 23485 ft | 396 kts | 181° |
| 2026-05-06 19:12 | 52.66281 | -2.29728 | 23956 ft | 402 kts | 169° |
| 2026-05-06 19:12 | 52.63598 | -2.28319 | 24416 ft | 408 kts | 158° |
| 2026-05-06 19:12 | 52.61113 | -2.26033 | 24856 ft | 412 kts | 147° |
| 2026-05-06 19:13 | 52.58722 | -2.23403 | 25305 ft | 415 kts | 147° |
| 2026-05-06 19:13 | 52.56311 | -2.20759 | 25746 ft | 418 kts | 147° |
| 2026-05-06 19:13 | 52.53886 | -2.18105 | 26188 ft | 420 kts | 147° |
| 2026-05-06 19:13 | 52.51442 | -2.15439 | 26618 ft | 423 kts | 147° |
| 2026-05-06 19:14 | 52.48982 | -2.12764 | 27032 ft | 426 kts | 148° |
| 2026-05-06 19:14 | 52.46505 | -2.10072 | 27474 ft | 428 kts | 148° |
| 2026-05-06 19:14 | 52.44016 | -2.07377 | 27898 ft | 430 kts | 148° |
| 2026-05-06 19:14 | 52.41510 | -2.04669 | 28315 ft | 433 kts | 148° |
| 2026-05-06 19:15 | 52.38990 | -2.01947 | 28732 ft | 435 kts | 148° |
| 2026-05-06 19:15 | 52.36458 | -1.99208 | 29138 ft | 438 kts | 148° |
| 2026-05-06 19:15 | 52.33909 | -1.96452 | 29535 ft | 440 kts | 148° |
| 2026-05-06 19:15 | 52.31345 | -1.93683 | 29922 ft | 443 kts | 148° |
| 2026-05-06 19:16 | 52.28834 | -1.90979 | 30258 ft | 445 kts | 148° |
| 2026-05-06 19:16 | 52.26179 | -1.88124 | 30565 ft | 448 kts | 149° |
| 2026-05-06 19:16 | 52.23561 | -1.85311 | 30908 ft | 450 kts | 149° |
| 2026-05-06 19:16 | 52.20943 | -1.82503 | 31219 ft | 452 kts | 149° |
| 2026-05-06 19:17 | 52.19201 | -1.80639 | 31419 ft | 453 kts | 149° |
| 2026-05-06 19:17 | 52.16558 | -1.77813 | 31761 ft | 454 kts | 149° |
| 2026-05-06 19:17 | 52.13922 | -1.75001 | 32193 ft | 453 kts | 149° |
| 2026-05-06 19:17 | 52.11332 | -1.72242 | 32603 ft | 452 kts | 149° |
| 2026-05-06 19:18 | 52.08659 | -1.69393 | 33020 ft | 452 kts | 149° |
| 2026-05-06 19:18 | 52.06139 | -1.66712 | 33420 ft | 451 kts | 149° |
| 2026-05-06 19:18 | 52.03655 | -1.64070 | 33818 ft | 450 kts | 148° |
| 2026-05-06 19:18 | 52.01036 | -1.61280 | 34191 ft | 449 kts | 149° |
| 2026-05-06 19:19 | 51.98421 | -1.58503 | 34554 ft | 448 kts | 149° |
| 2026-05-06 19:19 | 51.95819 | -1.55749 | 34863 ft | 448 kts | 149° |
| 2026-05-06 19:19 | 51.93545 | -1.53351 | 35000 ft | 448 kts | 149° |
| 2026-05-06 19:20 | 51.88493 | -1.48045 | 35029 ft | 438 kts | 149° |
| 2026-05-06 19:20 | 51.83829 | -1.43152 | 35030 ft | 436 kts | 149° |
| 2026-05-06 19:21 | 51.78804 | -1.37881 | 35021 ft | 435 kts | 149° |
| 2026-05-06 19:21 | 51.74499 | -1.33383 | 35029 ft | 434 kts | 149° |
| 2026-05-06 19:22 | 51.69426 | -1.28090 | 35026 ft | 434 kts | 149° |
| 2026-05-06 19:22 | 51.64349 | -1.22810 | 35121 ft | 439 kts | 149° |
| 2026-05-06 19:22 | 51.61875 | -1.20242 | 35338 ft | 441 kts | 149° |
| 2026-05-06 19:23 | 51.59942 | -1.18239 | 35530 ft | 442 kts | 149° |
| 2026-05-06 19:23 | 51.57579 | -1.15790 | 35780 ft | 442 kts | 149° |
| 2026-05-06 19:23 | 51.54880 | -1.12991 | 36058 ft | 442 kts | 149° |
| 2026-05-06 19:23 | 51.52293 | -1.10314 | 36330 ft | 442 kts | 149° |
| 2026-05-06 19:24 | 51.49724 | -1.07663 | 36583 ft | 442 kts | 149° |
| 2026-05-06 19:24 | 51.47350 | -1.05218 | 36814 ft | 442 kts | 149° |
| 2026-05-06 19:24 | 51.44779 | -1.02576 | 36986 ft | 443 kts | 149° |
| 2026-05-06 19:25 | 51.40032 | -0.97710 | 37021 ft | 443 kts | 149° |
| 2026-05-06 19:25 | 51.36263 | -0.93845 | 37019 ft | 443 kts | 149° |
| 2026-05-06 19:26 | 51.34601 | -0.92142 | 37016 ft | 443 kts | 149° |
| 2026-05-06 19:26 | 51.33571 | -0.91089 | 37017 ft | 443 kts | 149° |
| 2026-05-06 19:27 | 51.29338 | -0.86763 | 37023 ft | 443 kts | 149° |
| 2026-05-06 19:27 | 51.27883 | -0.85278 | 37025 ft | 443 kts | 149° |
| 2026-05-06 19:28 | 51.24642 | -0.81979 | 37029 ft | 443 kts | 149° |
| 2026-05-06 19:28 | 51.20832 | -0.78108 | 37032 ft | 442 kts | 149° |
| 2026-05-06 19:29 | 51.15668 | -0.72874 | 37034 ft | 442 kts | 149° |
| 2026-05-06 19:29 | 51.10475 | -0.67623 | 37027 ft | 442 kts | 149° |
| 2026-05-06 19:30 | 51.05602 | -0.62715 | 37021 ft | 442 kts | 149° |
| 2026-05-06 19:30 | 51.00509 | -0.57415 | 37011 ft | 443 kts | 147° |
| 2026-05-06 19:31 | 50.95416 | -0.51905 | 37010 ft | 443 kts | 147° |
| 2026-05-06 19:31 | 50.87768 | -0.43696 | 37009 ft | 443 kts | 148° |